createdAt,value
2017-11-23T00:02:13.648Z,98045.04
2017-11-23T00:04:41.131Z,98045.75
2017-11-23T00:07:08.595Z,98042.91
2017-11-23T00:09:36.079Z,98048.67
2017-11-23T00:12:03.539Z,98047.27
2017-11-23T00:14:31.018Z,98046.47
2017-11-23T00:16:58.502Z,98034.30
2017-11-23T00:19:25.957Z,98037.95
2017-11-23T00:21:53.434Z,98036.81
2017-11-23T00:24:20.915Z,98038.20
2017-11-23T00:26:48.402Z,98042.05
2017-11-23T00:29:15.879Z,98043.61
2017-11-23T00:31:43.360Z,98040.52
2017-11-23T00:34:10.826Z,98045.72
2017-11-23T00:36:38.287Z,98046.58
2017-11-23T00:39:05.767Z,98044.35
2017-11-23T00:41:33.232Z,98043.29
2017-11-23T00:44:00.699Z,98038.27
2017-11-23T00:46:28.177Z,98032.52
2017-11-23T00:48:55.660Z,98033.80
2017-11-23T00:51:23.130Z,98042.61
2017-11-23T00:53:50.593Z,98033.72
2017-11-23T00:56:18.077Z,98030.47
2017-11-23T00:58:45.793Z,98028.13
2017-11-23T01:01:13.254Z,98027.52
2017-11-23T01:03:40.886Z,98027.98
2017-11-23T01:06:08.370Z,98024.17
2017-11-23T01:08:35.832Z,98031.39
2017-11-23T01:11:03.328Z,98021.08
2017-11-23T01:13:30.818Z,98023.55
2017-11-23T01:15:58.303Z,98031.73
2017-11-23T01:18:25.764Z,98023.64
2017-11-23T01:20:53.250Z,98026.22
2017-11-23T01:23:20.713Z,98018.65
2017-11-23T01:25:48.212Z,98020.46
2017-11-23T01:28:15.678Z,98013.08
2017-11-23T01:30:43.160Z,98008.97
2017-11-23T01:33:10.651Z,98009.69
2017-11-23T01:35:38.129Z,98012.98
2017-11-23T01:38:05.626Z,98011.67
2017-11-23T01:40:33.083Z,98010.51
2017-11-23T01:43:00.566Z,98005.28
2017-11-23T01:45:28.058Z,98010.05
2017-11-23T01:47:55.545Z,98006.33
2017-11-23T01:50:23.043Z,98011.17
2017-11-23T01:52:50.503Z,98009.55
2017-11-23T01:55:18.009Z,98017.57
2017-11-23T01:57:45.467Z,98015.09
2017-11-23T02:00:12.931Z,98013.14
2017-11-23T02:02:40.418Z,98011.23
2017-11-23T02:05:07.886Z,98011.39
2017-11-23T02:07:35.354Z,98013.23
2017-11-23T02:10:02.835Z,98010.63
2017-11-23T02:12:30.340Z,98011.91
2017-11-23T02:14:57.819Z,98005.37
2017-11-23T02:17:25.285Z,98004.44
2017-11-23T02:19:52.779Z,98002.97
2017-11-23T02:22:20.263Z,97997.39
2017-11-23T02:24:47.731Z,98009.00
2017-11-23T02:27:15.227Z,98001.95
2017-11-23T02:29:42.682Z,98004.09
2017-11-23T02:32:10.167Z,98012.02
2017-11-23T02:34:37.664Z,98007.47
2017-11-23T02:37:05.132Z,98006.84
2017-11-23T02:39:32.942Z,98009.18
2017-11-23T02:42:00.435Z,98010.10
2017-11-23T02:44:27.908Z,98010.05
2017-11-23T02:46:55.396Z,98008.08
2017-11-23T02:49:22.851Z,98001.30
2017-11-23T02:51:50.342Z,97997.84
2017-11-23T02:54:17.832Z,97985.47
2017-11-23T02:56:45.299Z,97983.58
2017-11-23T02:59:12.783Z,97984.77
2017-11-23T03:01:40.246Z,97988.28
2017-11-23T03:04:07.738Z,97985.54
2017-11-23T03:06:35.230Z,97979.25
2017-11-23T03:09:02.728Z,97977.91
2017-11-23T03:11:30.202Z,97973.15
2017-11-23T03:13:57.675Z,97976.59
2017-11-23T03:16:25.154Z,97977.73
2017-11-23T03:18:52.621Z,97976.69
2017-11-23T03:21:20.109Z,97977.39
2017-11-23T03:23:47.567Z,97980.29
2017-11-23T03:26:15.043Z,97991.77
2017-11-23T03:28:42.526Z,97984.50
2017-11-23T03:31:09.982Z,97981.56
2017-11-23T03:33:37.454Z,97977.65
2017-11-23T03:36:04.940Z,97969.17
2017-11-23T03:38:32.402Z,97969.61
2017-11-23T03:40:59.882Z,97967.38
2017-11-23T03:43:27.388Z,97972.13
2017-11-23T03:45:54.847Z,97965.75
2017-11-23T03:48:22.330Z,97962.48
2017-11-23T03:50:49.832Z,97967.89
2017-11-23T03:53:17.301Z,97967.00
2017-11-23T03:55:44.776Z,97965.58
2017-11-23T03:58:12.273Z,97957.38
2017-11-23T04:00:39.734Z,97956.43
2017-11-23T04:03:07.218Z,97959.13
2017-11-23T04:05:34.716Z,97958.00
2017-11-23T04:08:02.206Z,97958.52
2017-11-23T04:10:29.667Z,97959.41
2017-11-23T04:12:57.160Z,97960.49
2017-11-23T04:15:24.636Z,97959.20
2017-11-23T04:17:52.130Z,97962.66
2017-11-23T04:20:19.604Z,97959.76
2017-11-23T04:22:47.098Z,97955.36
2017-11-23T04:25:14.573Z,97959.55
2017-11-23T04:27:42.026Z,97957.91
2017-11-23T04:30:09.509Z,97958.44
2017-11-23T04:32:37.021Z,97961.31
2017-11-23T04:35:04.480Z,97955.37
2017-11-23T04:37:31.944Z,97962.44
2017-11-23T04:39:59.430Z,97962.30
2017-11-23T04:42:26.917Z,97959.50
2017-11-23T04:44:54.407Z,97957.92
2017-11-23T04:47:21.858Z,97955.97
2017-11-23T04:49:49.349Z,97959.67
2017-11-23T04:52:16.851Z,97958.89
2017-11-23T04:54:44.324Z,97962.94
2017-11-23T04:57:11.814Z,97967.80
2017-11-23T04:59:39.286Z,97974.69
2017-11-23T05:02:07.096Z,97976.59
2017-11-23T05:04:34.558Z,97975.23
2017-11-23T05:07:02.027Z,97973.64
2017-11-23T05:09:29.512Z,97978.77
2017-11-23T05:11:56.994Z,97983.20
2017-11-23T05:14:24.466Z,97983.58
2017-11-23T05:16:52.094Z,97991.64
2017-11-23T05:19:19.566Z,97998.00
2017-11-23T05:21:47.051Z,97993.60
2017-11-23T05:24:14.515Z,97999.31
2017-11-23T05:26:42.008Z,98002.78
2017-11-23T05:29:09.703Z,97995.67
2017-11-23T05:31:37.203Z,97987.22
2017-11-23T05:34:04.684Z,97983.45
2017-11-23T05:36:32.175Z,97976.77
2017-11-23T05:38:59.647Z,97979.87
2017-11-23T05:41:27.134Z,97985.30
2017-11-23T05:43:54.611Z,97984.17
2017-11-23T05:46:22.087Z,97978.52
2017-11-23T05:48:49.577Z,97978.66
2017-11-23T05:51:17.036Z,97976.92
2017-11-23T05:53:44.520Z,97994.15
2017-11-23T05:56:11.979Z,97985.55
2017-11-23T05:58:39.474Z,97998.34
2017-11-23T06:01:06.943Z,97991.17
2017-11-23T06:03:34.424Z,97991.59
2017-11-23T06:06:01.923Z,97999.55
2017-11-23T06:08:29.396Z,98002.50
2017-11-23T06:10:57.309Z,97998.28
2017-11-23T06:13:24.783Z,98002.16
2017-11-23T06:15:52.282Z,98010.47
2017-11-23T06:18:19.746Z,98001.09
2017-11-23T06:20:47.233Z,98002.69
2017-11-23T06:23:14.748Z,98001.12
2017-11-23T06:25:42.202Z,98008.47
2017-11-23T06:28:09.688Z,98008.58
2017-11-23T06:30:37.148Z,98021.78
2017-11-23T06:33:04.641Z,98016.02
2017-11-23T06:35:32.107Z,98012.42
2017-11-23T06:37:59.575Z,98007.17
2017-11-23T06:40:27.079Z,98011.75
2017-11-23T06:42:54.542Z,98005.23
2017-11-23T06:45:22.045Z,98008.81
2017-11-23T06:47:49.559Z,98011.06
2017-11-23T06:50:17.023Z,98017.82
2017-11-23T06:52:44.491Z,98022.36
2017-11-23T06:55:11.974Z,98030.33
2017-11-23T06:57:39.440Z,98034.98
2017-11-23T07:00:06.940Z,98039.55
2017-11-23T07:02:34.405Z,98053.41
2017-11-23T07:05:01.896Z,98050.85
2017-11-23T07:07:29.378Z,98045.68
2017-11-23T07:09:56.865Z,98042.52
2017-11-23T07:19:07.635Z,98052.48
2017-11-23T07:21:35.247Z,98044.19
2017-11-23T07:24:02.748Z,98045.75
2017-11-23T07:26:30.225Z,98043.81
2017-11-23T07:28:57.710Z,98046.77
2017-11-23T07:31:25.179Z,98050.52
2017-11-23T07:33:52.651Z,98062.25
2017-11-23T07:36:20.155Z,98058.43
2017-11-23T07:38:47.634Z,98057.46
2017-11-23T07:41:15.115Z,98058.16
2017-11-23T07:43:42.609Z,98053.94
2017-11-23T07:46:10.093Z,98056.34
2017-11-23T07:48:37.589Z,98059.22
2017-11-23T07:51:05.062Z,98065.06
2017-11-23T07:53:32.531Z,98068.92
2017-11-23T07:56:00.019Z,98062.83
2017-11-23T07:58:27.482Z,98069.90
2017-11-23T08:00:54.995Z,98069.25
2017-11-23T08:03:22.458Z,98069.06
2017-11-23T08:05:49.919Z,98080.09
2017-11-23T08:08:17.408Z,98080.33
2017-11-23T08:10:44.877Z,98081.83
2017-11-23T08:13:12.370Z,98086.91
2017-11-23T08:15:39.834Z,98088.83
2017-11-23T08:18:07.328Z,98095.47
2017-11-23T08:20:34.823Z,98108.28
2017-11-23T08:23:02.315Z,98107.34
2017-11-23T08:25:29.961Z,98103.30
2017-11-23T08:27:57.429Z,98105.72
2017-11-23T08:30:24.904Z,98114.60
2017-11-23T08:32:52.399Z,98122.02
2017-11-23T08:35:19.882Z,98124.79
2017-11-23T08:37:47.366Z,98126.46
2017-11-23T08:40:14.858Z,98141.55
2017-11-23T08:42:42.328Z,98147.75
2017-11-23T08:45:09.811Z,98139.53
2017-11-23T08:47:37.278Z,98137.83
2017-11-23T08:50:04.767Z,98146.69
2017-11-23T08:52:34.172Z,98148.34
2017-11-23T08:55:01.646Z,98147.48
2017-11-23T08:57:29.111Z,98160.12
2017-11-23T08:59:56.578Z,98164.67
2017-11-23T09:02:24.070Z,98171.31
2017-11-23T09:04:51.558Z,98178.16
2017-11-23T09:07:19.037Z,98180.23
2017-11-23T09:09:46.523Z,98180.56
2017-11-23T09:12:14.943Z,98177.86
2017-11-23T09:14:42.408Z,98175.93
2017-11-23T09:17:09.902Z,98173.94
2017-11-23T09:19:37.359Z,98180.31
2017-11-23T09:22:04.849Z,98176.50
2017-11-23T09:24:32.310Z,98180.20
2017-11-23T09:26:59.795Z,98185.87
2017-11-23T09:29:27.275Z,98178.82
2017-11-23T09:31:54.734Z,98189.30
2017-11-23T09:34:22.560Z,98199.70
2017-11-23T09:36:50.023Z,98204.05
2017-11-23T09:39:17.491Z,98189.38
2017-11-23T09:41:44.972Z,98189.23
2017-11-23T09:44:12.435Z,98202.37
2017-11-23T09:46:40.194Z,98194.84
2017-11-23T09:49:07.651Z,98194.66
2017-11-23T09:51:35.110Z,98205.78
2017-11-23T09:54:02.604Z,98218.13
2017-11-23T09:56:30.092Z,98212.45
2017-11-23T09:58:57.590Z,98210.06
2017-11-23T10:01:25.061Z,98211.67
2017-11-23T10:03:52.541Z,98208.48
2017-11-23T10:06:20.001Z,98211.28
2017-11-23T10:08:47.488Z,98200.64
2017-11-23T10:11:14.951Z,98199.71
2017-11-23T10:13:42.440Z,98199.11
2017-11-23T10:16:09.913Z,98198.76
2017-11-23T10:18:37.399Z,98193.99
2017-11-23T10:21:04.859Z,98199.88
2017-11-23T10:23:32.343Z,98201.69
2017-11-23T10:25:59.800Z,98202.86
2017-11-23T10:28:27.451Z,98205.72
2017-11-23T10:30:54.902Z,98215.74
2017-11-23T10:33:22.362Z,98214.80
2017-11-23T10:35:49.873Z,98219.47
2017-11-23T10:38:17.335Z,98219.72
2017-11-23T10:40:44.836Z,98214.64
2017-11-23T10:43:12.323Z,98216.70
2017-11-23T10:45:39.791Z,98217.20
2017-11-23T10:48:07.254Z,98215.02
2017-11-23T10:50:34.752Z,98215.94
2017-11-23T10:53:02.404Z,98218.76
2017-11-23T10:55:29.876Z,98222.63
2017-11-23T10:57:57.356Z,98229.72
2017-11-23T11:00:24.850Z,98236.02
2017-11-23T11:02:52.333Z,98240.31
2017-11-23T11:05:19.787Z,98233.06
2017-11-23T11:07:47.270Z,98238.14
2017-11-23T11:10:14.739Z,98238.98
2017-11-23T11:12:42.212Z,98243.86
2017-11-23T11:15:09.693Z,98250.53
2017-11-23T11:17:37.457Z,98248.14
2017-11-23T11:20:04.952Z,98248.87
2017-11-23T11:22:32.413Z,98254.59
2017-11-23T11:24:59.888Z,98251.41
2017-11-23T11:27:27.366Z,98247.04
2017-11-23T11:29:54.824Z,98247.53
2017-11-23T11:32:22.303Z,98243.98
2017-11-23T11:34:49.756Z,98245.73
2017-11-23T11:37:17.241Z,98242.17
2017-11-23T11:39:45.625Z,98236.16
2017-11-23T11:42:13.107Z,98243.08
2017-11-23T11:44:40.582Z,98244.89
2017-11-23T11:47:08.049Z,98246.09
2017-11-23T11:49:35.530Z,98246.56
2017-11-23T11:52:03.005Z,98245.19
2017-11-23T11:54:30.521Z,98244.37
2017-11-23T11:56:58.027Z,98246.55
2017-11-23T11:59:25.525Z,98250.59
2017-11-23T12:01:52.989Z,98232.93
2017-11-23T12:04:20.474Z,98233.63
2017-11-23T12:06:47.962Z,98225.67
2017-11-23T12:09:15.410Z,98214.58
2017-11-23T12:11:42.890Z,98215.89
2017-11-23T12:14:22.129Z,98206.11
2017-11-23T12:17:01.506Z,98208.84
2017-11-23T12:19:40.743Z,98210.60
2017-11-23T12:22:19.989Z,98202.14
2017-11-23T12:24:59.375Z,98204.59
2017-11-23T12:27:26.847Z,98203.76
2017-11-23T12:30:06.121Z,98213.54
2017-11-23T12:32:33.619Z,98216.64
2017-11-23T12:35:01.197Z,98212.56
2017-11-23T12:37:28.681Z,98212.16
2017-11-23T12:39:56.171Z,98213.22
2017-11-23T12:42:23.699Z,98218.19
2017-11-23T12:44:51.160Z,98210.58
2017-11-23T12:47:18.782Z,98213.50
2017-11-23T12:49:46.269Z,98213.80
2017-11-23T12:52:13.742Z,98210.27
2017-11-23T12:54:41.202Z,98206.30
2017-11-23T12:57:08.686Z,98212.70
2017-11-23T12:59:36.141Z,98215.97
2017-11-23T13:02:03.604Z,98209.59
2017-11-23T13:04:31.079Z,98212.43
2017-11-23T13:06:58.530Z,98209.73
2017-11-23T13:09:26.019Z,98200.69
2017-11-23T13:11:53.494Z,98201.14
2017-11-23T13:14:20.957Z,98209.94
2017-11-23T13:16:48.470Z,98209.25
2017-11-23T13:19:15.938Z,98213.58
2017-11-23T13:21:43.394Z,98212.16
2017-11-23T13:24:10.878Z,98207.11
2017-11-23T13:26:38.341Z,98206.50
2017-11-23T13:29:05.816Z,98205.88
2017-11-23T13:31:33.266Z,98218.00
2017-11-23T13:34:00.745Z,98217.20
2017-11-23T13:36:28.210Z,98211.75
2017-11-23T13:38:55.679Z,98213.35
2017-11-23T13:41:23.171Z,98226.38
2017-11-23T13:43:50.630Z,98228.04
2017-11-23T13:46:18.118Z,98227.81
2017-11-23T13:48:45.579Z,98236.62
2017-11-23T13:51:13.035Z,98232.47
2017-11-23T13:53:40.514Z,98224.63
2017-11-23T13:56:07.976Z,98219.83
2017-11-23T13:58:35.493Z,98220.69
2017-11-23T14:01:02.979Z,98227.94
2017-11-23T14:03:30.448Z,98233.25
2017-11-23T14:05:57.939Z,98238.95
2017-11-23T14:08:25.432Z,98236.62
2017-11-23T14:10:52.914Z,98234.67
2017-11-23T14:13:20.394Z,98231.55
2017-11-23T14:15:47.874Z,98236.16
2017-11-23T14:18:15.338Z,98241.73
2017-11-23T14:20:42.822Z,98233.28
2017-11-23T14:23:10.272Z,98231.58
2017-11-23T14:25:37.757Z,98234.41
2017-11-23T14:28:05.215Z,98242.72
2017-11-23T14:30:32.695Z,98248.60
2017-11-23T14:33:00.171Z,98256.72
2017-11-23T14:35:27.627Z,98245.17
2017-11-23T14:37:55.107Z,98251.35
2017-11-23T14:40:22.561Z,98254.98
2017-11-23T14:42:50.044Z,98262.23
2017-11-23T14:45:17.503Z,98263.30
2017-11-23T14:47:44.963Z,98268.72
2017-11-23T14:50:12.716Z,98267.56
2017-11-23T14:52:40.178Z,98270.42
2017-11-23T14:55:07.637Z,98276.09
2017-11-23T14:57:35.142Z,98270.84
2017-11-23T15:00:02.607Z,98279.93
2017-11-23T15:02:30.062Z,98280.61
2017-11-23T15:04:58.485Z,98280.48
2017-11-23T15:07:25.963Z,98286.53
2017-11-23T15:09:53.437Z,98283.20
2017-11-23T15:12:21.084Z,98293.04
2017-11-23T15:14:48.622Z,98291.17
2017-11-23T15:17:16.079Z,98286.85
2017-11-23T15:19:43.567Z,98291.50
2017-11-23T15:22:11.057Z,98288.00
2017-11-23T15:24:38.541Z,98293.65
2017-11-23T15:27:06.025Z,98293.52
2017-11-23T15:29:33.487Z,98289.11
2017-11-23T15:32:00.971Z,98287.62
2017-11-23T15:34:28.457Z,98283.41
2017-11-23T15:36:56.497Z,98279.94
2017-11-23T15:39:23.971Z,98288.77
2017-11-23T15:41:51.452Z,98288.56
2017-11-23T15:44:18.932Z,98291.80
2017-11-23T15:46:46.432Z,98294.25
2017-11-23T15:49:13.889Z,98293.94
2017-11-23T15:51:41.346Z,98295.73
2017-11-23T15:54:08.830Z,98295.44
2017-11-23T15:56:36.293Z,98292.13
2017-11-23T15:59:03.758Z,98295.63
2017-11-23T16:04:29.133Z,98299.09
2017-11-23T16:06:56.591Z,98296.23
2017-11-23T16:09:24.054Z,98302.93
2017-11-23T16:11:51.561Z,98305.25
2017-11-23T16:14:19.037Z,98304.09
2017-11-23T16:16:46.498Z,98305.16
2017-11-23T16:19:14.139Z,98308.36
2017-11-23T16:21:41.684Z,98313.98
2017-11-23T16:24:09.150Z,98315.07
2017-11-23T16:26:36.633Z,98324.05
2017-11-23T16:29:04.122Z,98330.97
2017-11-23T16:31:31.597Z,98337.61
2017-11-23T16:33:59.601Z,98334.33
2017-11-23T16:36:27.898Z,98337.11
2017-11-23T16:38:57.296Z,98338.15
2017-11-23T16:41:24.770Z,98344.27
2017-11-23T16:46:58.059Z,98343.66
2017-11-23T16:49:31.167Z,98337.02
2017-11-23T16:52:07.301Z,98331.41
2017-11-23T16:54:40.314Z,98336.05
2017-11-23T16:57:22.698Z,98336.41
2017-11-23T17:00:01.109Z,98349.90
2017-11-23T17:05:37.924Z,98336.83
2017-11-23T17:08:20.833Z,98345.47
2017-11-23T17:10:54.138Z,98353.52
2017-11-23T17:13:27.126Z,98357.83
2017-11-23T17:16:00.112Z,98355.08
2017-11-23T17:18:48.330Z,98355.41
2017-11-23T17:21:15.848Z,98366.19
2017-11-23T17:23:43.334Z,98368.80
2017-11-23T17:26:10.800Z,98363.54
2017-11-23T17:28:38.319Z,98359.97
2017-11-23T17:31:05.795Z,98359.02
2017-11-23T17:33:33.269Z,98359.03
2017-11-23T17:36:01.236Z,98365.58
2017-11-23T17:38:28.714Z,98370.35
2017-11-23T17:40:56.186Z,98365.84
2017-11-23T17:43:23.693Z,98371.02
2017-11-23T17:45:51.193Z,98370.42
2017-11-23T17:48:18.742Z,98378.11
2017-11-23T17:50:46.207Z,98374.91
2017-11-23T17:53:13.945Z,98370.35
2017-11-23T17:55:41.421Z,98373.61
2017-11-23T17:58:08.887Z,98378.16
2017-11-23T18:00:36.362Z,98380.56
2017-11-23T18:03:04.067Z,98381.18
2017-11-23T18:05:31.554Z,98367.79
2017-11-23T18:07:59.047Z,98365.11
2017-11-23T18:10:26.562Z,98362.44
2017-11-23T18:12:54.148Z,98366.62
2017-11-23T18:15:21.605Z,98363.61
2017-11-23T18:17:49.079Z,98371.09
2017-11-23T18:20:16.570Z,98371.52
2017-11-23T18:22:44.059Z,98367.47
2017-11-23T18:25:11.524Z,98367.73
2017-11-23T18:27:38.993Z,98358.34
2017-11-23T18:30:06.474Z,98370.01
2017-11-23T18:32:33.955Z,98373.81
2017-11-23T18:35:01.663Z,98365.70
2017-11-23T18:37:29.163Z,98369.52
2017-11-23T18:39:56.628Z,98367.79
2017-11-23T18:42:24.100Z,98359.63
2017-11-23T18:44:51.604Z,98364.54
2017-11-23T18:47:19.207Z,98367.77
2017-11-23T18:49:46.693Z,98373.45
2017-11-23T18:52:14.163Z,98380.02
2017-11-23T18:54:41.625Z,98377.00
2017-11-23T18:57:09.112Z,98381.75
2017-11-23T18:59:36.590Z,98392.81
2017-11-23T19:02:04.069Z,98391.27
2017-11-23T19:04:31.596Z,98391.58
2017-11-23T19:06:59.086Z,98393.20
2017-11-23T19:09:26.551Z,98397.85
2017-11-23T19:11:54.021Z,98398.07
2017-11-23T19:14:21.539Z,98399.73
2017-11-23T19:16:49.031Z,98392.94
2017-11-23T19:19:16.495Z,98405.70
2017-11-23T19:21:44.003Z,98401.83
2017-11-23T19:24:11.527Z,98402.89
2017-11-23T19:26:39.003Z,98403.39
2017-11-23T19:29:07.009Z,98410.03
2017-11-23T19:31:35.034Z,98411.33
2017-11-23T19:34:02.665Z,98410.05
2017-11-23T19:36:30.477Z,98415.64
2017-11-23T19:38:59.167Z,98411.83
2017-11-23T19:41:27.172Z,98413.90
2017-11-23T19:43:54.999Z,98420.59
2017-11-23T19:46:22.503Z,98425.09
2017-11-23T19:48:50.524Z,98421.27
2017-11-23T19:51:18.451Z,98429.48
2017-11-23T19:53:45.982Z,98427.88
2017-11-23T19:56:13.486Z,98423.92
2017-11-23T19:58:41.984Z,98422.06
2017-11-23T20:01:09.461Z,98425.38
2017-11-23T20:03:38.146Z,98422.44
2017-11-23T20:06:05.618Z,98426.04
2017-11-23T20:08:33.075Z,98430.33
2017-11-23T20:11:00.573Z,98437.44
2017-11-23T20:13:28.063Z,98441.64
2017-11-23T20:15:55.523Z,98442.30
2017-11-23T20:18:23.039Z,98438.67
2017-11-23T20:20:50.529Z,98456.90
2017-11-23T20:23:18.180Z,98449.53
2017-11-23T20:25:46.201Z,98447.19
2017-11-23T20:28:13.702Z,98442.03
2017-11-23T20:30:41.953Z,98442.93
2017-11-23T20:33:09.426Z,98439.49
2017-11-23T20:35:36.942Z,98444.27
2017-11-23T20:38:04.507Z,98445.45
2017-11-23T20:40:32.114Z,98448.82
2017-11-23T20:42:59.582Z,98452.89
2017-11-23T20:45:27.053Z,98454.81
2017-11-23T20:47:54.538Z,98452.67
2017-11-23T20:50:22.034Z,98450.01
2017-11-23T20:52:49.551Z,98449.00
2017-11-23T20:55:17.018Z,98454.31
2017-11-23T20:57:44.519Z,98448.78
2017-11-23T21:00:11.983Z,98449.20
2017-11-23T21:02:39.463Z,98456.41
2017-11-23T21:05:06.968Z,98453.42
2017-11-23T21:07:34.440Z,98452.23
2017-11-23T21:10:01.951Z,98453.10
2017-11-23T21:12:29.675Z,98462.50
2017-11-23T21:14:57.135Z,98471.48
2017-11-23T21:17:24.615Z,98474.38
2017-11-23T21:19:52.083Z,98481.83
2017-11-23T21:22:19.546Z,98486.20
2017-11-23T21:24:47.036Z,98484.34
2017-11-23T21:27:14.511Z,98487.08
2017-11-23T21:29:42.000Z,98491.80
2017-11-23T21:32:09.481Z,98493.39
2017-11-23T21:34:36.968Z,98497.48
2017-11-23T21:37:04.439Z,98492.71
2017-11-23T21:39:31.934Z,98497.53
2017-11-23T21:41:59.402Z,98501.64
2017-11-23T21:44:26.867Z,98497.77
2017-11-23T21:46:54.354Z,98498.41
2017-11-23T21:49:21.838Z,98494.75
2017-11-23T21:51:49.299Z,98502.35
2017-11-23T21:54:16.800Z,98502.88
2017-11-23T21:56:44.267Z,98498.68
2017-11-23T21:59:11.762Z,98504.89
2017-11-23T22:01:39.251Z,98492.87
2017-11-23T22:04:06.711Z,98495.95
2017-11-23T22:06:34.193Z,98495.10
2017-11-23T22:09:01.652Z,98495.09
2017-11-23T22:11:29.136Z,98505.29
2017-11-23T22:13:56.622Z,98508.25
2017-11-23T22:16:24.089Z,98506.24
2017-11-23T22:18:51.810Z,98503.52
2017-11-23T22:21:19.271Z,98508.37
2017-11-23T22:23:46.736Z,98504.97
2017-11-23T22:26:14.216Z,98501.66
2017-11-23T22:28:41.680Z,98508.76
2017-11-23T22:31:09.178Z,98508.98
2017-11-23T22:33:36.649Z,98499.81
2017-11-23T22:36:04.107Z,98502.55
2017-11-23T22:38:31.608Z,98509.89
2017-11-23T22:40:59.062Z,98507.05
2017-11-23T22:43:26.544Z,98502.03
2017-11-23T22:45:53.998Z,98506.91
2017-11-23T22:48:21.472Z,98500.30
2017-11-23T22:50:48.959Z,98503.27
2017-11-23T22:53:16.444Z,98502.39
2017-11-23T22:55:43.918Z,98501.53
2017-11-23T22:58:11.406Z,98498.73
2017-11-23T23:00:38.876Z,98499.83
2017-11-23T23:03:06.371Z,98507.27
2017-11-23T23:05:33.871Z,98504.70
2017-11-23T23:08:01.338Z,98504.56
2017-11-23T23:10:28.792Z,98510.47
2017-11-23T23:12:56.281Z,98507.12
2017-11-23T23:15:23.767Z,98511.48
2017-11-23T23:17:51.245Z,98507.98
2017-11-23T23:20:18.707Z,98499.42
2017-11-23T23:22:46.178Z,98499.20
2017-11-23T23:25:13.635Z,98496.41
2017-11-23T23:27:41.092Z,98497.90
2017-11-23T23:30:08.881Z,98497.64
2017-11-23T23:32:36.359Z,98506.39
2017-11-23T23:35:03.821Z,98502.81
2017-11-23T23:37:31.315Z,98505.97
2017-11-23T23:39:58.775Z,98508.10
2017-11-23T23:42:26.255Z,98521.84
2017-11-23T23:44:53.735Z,98519.77
2017-11-23T23:47:21.221Z,98520.74
2017-11-23T23:49:48.680Z,98515.34
2017-11-23T23:52:16.175Z,98514.34
2017-11-23T23:54:43.644Z,98512.05
2017-11-23T23:57:11.128Z,98505.72
2017-11-23T23:59:38.611Z,98501.70
